Aérodrome :
LOGIN :

S'inscrire | Disclaimer

   EN    FR    IT 

 










Légende :    VFR   VFR Marginal   IFR   IFR Intensif   IFR Très Intensif
Visi : 
Plafond : 
>= 8 km
>= 3000ft
5 à 8 km
1000 à 3000 ft
1500m à 5 km
500 à 1000 ft
800 à 1500m
200 à 500 ft
< 800m
< 200 ft
Symboles :   Orages  Brouillard  Fortes neiges  Fortes précipitations  Vent > 20 kt
SIGMETs :   Divers  Orages  Givrage  Turbulence  Onde Orograph.  Cendres Volcan.







- Altitude de l'aérodrome : 147 ft
- Code IATA : DUS


EDDL - Düsseldorf Int.

DERNIER METAR :
  • 210120Z 01004KT CAVOK 12/08 Q1018 NOSIG

METARs EXPIRÉS :
  • 210050Z 35004KT CAVOK 12/08 Q1018 NOSIG
  • 210020Z 35003KT CAVOK 12/08 Q1018 NOSIG
  • 202350Z 35002KT CAVOK 12/08 Q1018 NOSIG
  • 202320Z 02002KT CAVOK 13/08 Q1019 NOSIG
  • 202250Z 07005KT CAVOK 14/08 Q1019 NOSIG

TAF TAF EDDL
Valide du 21 à 00h jusqu'au 22 à 06h UTC


202300Z 2100/2206 05005KT CAVOK
BECMG 2107/2110 09010KT
PROB30
TEMPO 2111/2114 09015G25KT
BECMG 2117/2120 06005KT
BECMG 2121/2124 VRB03KT
Pas de NOTAMs connus pour ce terrain.



MET'MAP, la Météo Aéronautique d'un coup d'oeil ! - Copyright ORBIFLY Décembre 2007 - Disclaimer

ORBIFLY MET'MAP TEAM :

Programmation & Développement : Alexandra Zaïnal
Conception & Développement : Baudouin d'Aumeries
Co-Programmation & Développement : Marc-Olivier Méhu
Soutien technique & logistique : Manuel Goepfert

Contact : metmap@orbifly.com




SOURCES & CREDITS :

   NOAA